sensor_id;sensor_type;location;lat;lon;timestamp;temperature;humidity
9847;DHT22;68671;50.084;8.794;2023-04-01T00:00:02;13.90;99.90
9847;DHT22;68671;50.084;8.794;2023-04-01T00:02:30;13.90;99.90
9847;DHT22;68671;50.084;8.794;2023-04-01T00:04:56;13.90;99.90
9847;DHT22;68671;50.084;8.794;2023-04-01T00:07:25;13.90;99.90
9847;DHT22;68671;50.084;8.794;2023-04-01T00:09:52;14.00;99.90
9847;DHT22;68671;50.084;8.794;2023-04-01T00:12:19;13.90;99.90
9847;DHT22;68671;50.084;8.794;2023-04-01T00:14:46;13.90;99.90
9847;DHT22;68671;50.084;8.794;2023-04-01T00:17:13;13.90;99.90
9847;DHT22;68671;50.084;8.794;2023-04-01T00:19:40;13.80;99.90
9847;DHT22;68671;50.084;8.794;2023-04-01T00:22:07;13.80;99.90
9847;DHT22;68671;50.084;8.794;2023-04-01T00:24:38;13.80;99.90
9847;DHT22;68671;50.084;8.794;2023-04-01T00:27:05;13.80;99.90
9847;DHT22;68671;50.084;8.794;2023-04-01T00:29:33;13.80;99.90
9847;DHT22;68671;50.084;8.794;2023-04-01T00:32:01;13.80;99.90
9847;DHT22;68671;50.084;8.794;2023-04-01T00:34:28;13.80;99.90
9847;DHT22;68671;50.084;8.794;2023-04-01T00:36:54;13.70;99.90
9847;DHT22;68671;50.084;8.794;2023-04-01T00:39:21;13.70;99.90
9847;DHT22;68671;50.084;8.794;2023-04-01T00:41:50;13.70;99.90
9847;DHT22;68671;50.084;8.794;2023-04-01T00:44:19;13.80;99.90
9847;DHT22;68671;50.084;8.794;2023-04-01T00:46:47;13.80;99.90
9847;DHT22;68671;50.084;8.794;2023-04-01T00:49:16;13.80;99.90
9847;DHT22;68671;50.084;8.794;2023-04-01T00:51:47;13.80;99.90
9847;DHT22;68671;50.084;8.794;2023-04-01T00:54:16;13.70;99.90
9847;DHT22;68671;50.084;8.794;2023-04-01T00:56:46;13.70;99.90
9847;DHT22;68671;50.084;8.794;2023-04-01T00:59:22;13.70;99.90
9847;DHT22;68671;50.084;8.794;2023-04-01T01:01:49;13.70;99.90
9847;DHT22;68671;50.084;8.794;2023-04-01T01:04:24;13.60;99.90
9847;DHT22;68671;50.084;8.794;2023-04-01T01:07:02;13.60;99.90
9847;DHT22;68671;50.084;8.794;2023-04-01T01:09:39;13.60;99.90
9847;DHT22;68671;50.084;8.794;2023-04-01T01:12:11;13.60;99.90
9847;DHT22;68671;50.084;8.794;2023-04-01T01:14:53;13.60;99.90
9847;DHT22;68671;50.084;8.794;2023-04-01T01:17:31;13.60;99.90
9847;DHT22;68671;50.084;8.794;2023-04-01T01:23:35;13.60;99.90
9847;DHT22;68671;50.084;8.794;2023-04-01T01:26:23;13.60;99.90
9847;DHT22;68671;50.084;8.794;2023-04-01T01:29:04;13.60;99.90
9847;DHT22;68671;50.084;8.794;2023-04-01T01:31:44;13.70;99.90
9847;DHT22;68671;50.084;8.794;2023-04-01T01:34:20;13.70;99.90
9847;DHT22;68671;50.084;8.794;2023-04-01T01:36:55;13.70;99.90
9847;DHT22;68671;50.084;8.794;2023-04-01T01:39:26;13.70;99.90
9847;DHT22;68671;50.084;8.794;2023-04-01T01:42:00;13.70;99.90
9847;DHT22;68671;50.084;8.794;2023-04-01T01:44:28;13.70;99.90
9847;DHT22;68671;50.084;8.794;2023-04-01T01:47:15;13.60;99.90
9847;DHT22;68671;50.084;8.794;2023-04-01T01:49:46;13.60;99.90
9847;DHT22;68671;50.084;8.794;2023-04-01T01:52:21;13.70;99.90
9847;DHT22;68671;50.084;8.794;2023-04-01T01:54:52;13.70;99.90
9847;DHT22;68671;50.084;8.794;2023-04-01T01:57:25;13.70;99.90
9847;DHT22;68671;50.084;8.794;2023-04-01T02:00:08;13.70;99.90
9847;DHT22;68671;50.084;8.794;2023-04-01T02:02:39;13.70;99.90
9847;DHT22;68671;50.084;8.794;2023-04-01T02:05:08;13.70;99.90
9847;DHT22;68671;50.084;8.794;2023-04-01T02:07:39;13.80;99.90
9847;DHT22;68671;50.084;8.794;2023-04-01T02:10:09;13.80;99.90
9847;DHT22;68671;50.084;8.794;2023-04-01T02:12:38;13.80;99.90
9847;DHT22;68671;50.084;8.794;2023-04-01T02:15:16;13.80;99.90
9847;DHT22;68671;50.084;8.794;2023-04-01T02:17:50;13.90;99.90
9847;DHT22;68671;50.084;8.794;2023-04-01T02:20:22;13.90;99.90
9847;DHT22;68671;50.084;8.794;2023-04-01T02:22:56;13.90;99.90
9847;DHT22;68671;50.084;8.794;2023-04-01T02:25:30;13.90;99.90
9847;DHT22;68671;50.084;8.794;2023-04-01T02:28:00;13.90;99.90
9847;DHT22;68671;50.084;8.794;2023-04-01T02:30:34;14.00;99.90
9847;DHT22;68671;50.084;8.794;2023-04-01T02:33:12;13.90;99.90
9847;DHT22;68671;50.084;8.794;2023-04-01T02:35:39;13.90;99.90
9847;DHT22;68671;50.084;8.794;2023-04-01T02:38:17;13.90;99.90
9847;DHT22;68671;50.084;8.794;2023-04-01T02:40:46;13.90;99.90
9847;DHT22;68671;50.084;8.794;2023-04-01T02:43:21;13.80;99.90
9847;DHT22;68671;50.084;8.794;2023-04-01T02:45:59;13.80;99.90
9847;DHT22;68671;50.084;8.794;2023-04-01T02:48:33;13.80;99.90
9847;DHT22;68671;50.084;8.794;2023-04-01T02:51:03;13.80;99.90
9847;DHT22;68671;50.084;8.794;2023-04-01T02:53:40;13.90;99.90
9847;DHT22;68671;50.084;8.794;2023-04-01T02:56:14;13.80;99.90
9847;DHT22;68671;50.084;8.794;2023-04-01T02:58:41;13.80;99.90
9847;DHT22;68671;50.084;8.794;2023-04-01T03:01:09;13.80;99.90
9847;DHT22;68671;50.084;8.794;2023-04-01T03:03:41;13.70;99.90
9847;DHT22;68671;50.084;8.794;2023-04-01T03:06:18;13.70;99.90
9847;DHT22;68671;50.084;8.794;2023-04-01T03:08:47;13.70;99.90
9847;DHT22;68671;50.084;8.794;2023-04-01T03:11:14;13.70;99.90
9847;DHT22;68671;50.084;8.794;2023-04-01T03:13:41;13.60;99.90
9847;DHT22;68671;50.084;8.794;2023-04-01T03:16:08;13.60;99.90
9847;DHT22;68671;50.084;8.794;2023-04-01T03:18:35;13.60;99.90
9847;DHT22;68671;50.084;8.794;2023-04-01T03:21:26;13.60;99.90
9847;DHT22;68671;50.084;8.794;2023-04-01T03:23:57;13.50;99.90
9847;DHT22;68671;50.084;8.794;2023-04-01T03:26:25;13.50;99.90
9847;DHT22;68671;50.084;8.794;2023-04-01T03:28:53;13.60;99.90
9847;DHT22;68671;50.084;8.794;2023-04-01T03:31:20;13.50;99.90
9847;DHT22;68671;50.084;8.794;2023-04-01T03:33:48;13.50;99.90
9847;DHT22;68671;50.084;8.794;2023-04-01T03:36:15;13.40;99.90
9847;DHT22;68671;50.084;8.794;2023-04-01T03:38:43;13.30;99.90
9847;DHT22;68671;50.084;8.794;2023-04-01T03:41:16;13.30;99.90
9847;DHT22;68671;50.084;8.794;2023-04-01T03:43:44;13.30;99.90
9847;DHT22;68671;50.084;8.794;2023-04-01T03:46:11;13.30;99.90
9847;DHT22;68671;50.084;8.794;2023-04-01T03:48:41;13.30;99.90
9847;DHT22;68671;50.084;8.794;2023-04-01T03:51:08;13.30;99.90
9847;DHT22;68671;50.084;8.794;2023-04-01T03:53:36;13.30;99.90
9847;DHT22;68671;50.084;8.794;2023-04-01T03:56:04;13.30;99.90
9847;DHT22;68671;50.084;8.794;2023-04-01T03:58:40;13.30;99.90
9847;DHT22;68671;50.084;8.794;2023-04-01T04:01:15;13.20;99.90
9847;DHT22;68671;50.084;8.794;2023-04-01T04:03:42;13.20;99.90
9847;DHT22;68671;50.084;8.794;2023-04-01T04:06:12;13.20;99.90
9847;DHT22;68671;50.084;8.794;2023-04-01T04:08:39;13.20;99.90
9847;DHT22;68671;50.084;8.794;2023-04-01T04:11:06;13.20;99.90
9847;DHT22;68671;50.084;8.794;2023-04-01T04:13:33;13.20;99.90
9847;DHT22;68671;50.084;8.794;2023-04-01T04:16:14;13.20;99.90
9847;DHT22;68671;50.084;8.794;2023-04-01T04:18:44;13.30;99.90
9847;DHT22;68671;50.084;8.794;2023-04-01T04:21:12;13.30;99.90
9847;DHT22;68671;50.084;8.794;2023-04-01T04:23:40;13.30;99.90
9847;DHT22;68671;50.084;8.794;2023-04-01T04:26:09;13.30;99.90
9847;DHT22;68671;50.084;8.794;2023-04-01T04:28:36;13.30;99.90
9847;DHT22;68671;50.084;8.794;2023-04-01T04:31:05;13.40;99.90
9847;DHT22;68671;50.084;8.794;2023-04-01T04:33:33;13.40;99.90
9847;DHT22;68671;50.084;8.794;2023-04-01T04:36:01;13.40;99.90
9847;DHT22;68671;50.084;8.794;2023-04-01T04:38:28;13.40;99.90
9847;DHT22;68671;50.084;8.794;2023-04-01T04:40:55;13.40;99.90
9847;DHT22;68671;50.084;8.794;2023-04-01T04:43:22;13.50;99.90
9847;DHT22;68671;50.084;8.794;2023-04-01T04:45:50;13.50;99.90
9847;DHT22;68671;50.084;8.794;2023-04-01T04:48:19;13.60;99.90
9847;DHT22;68671;50.084;8.794;2023-04-01T04:50:46;13.60;99.90
9847;DHT22;68671;50.084;8.794;2023-04-01T04:53:15;13.60;99.90
9847;DHT22;68671;50.084;8.794;2023-04-01T04:55:45;13.60;99.90
9847;DHT22;68671;50.084;8.794;2023-04-01T04:58:12;13.60;99.90
9847;DHT22;68671;50.084;8.794;2023-04-01T05:00:40;13.60;99.90
9847;DHT22;68671;50.084;8.794;2023-04-01T05:03:07;13.60;99.90
9847;DHT22;68671;50.084;8.794;2023-04-01T05:05:36;13.60;99.90
9847;DHT22;68671;50.084;8.794;2023-04-01T05:08:28;13.60;99.90
9847;DHT22;68671;50.084;8.794;2023-04-01T05:10:55;13.50;99.90
9847;DHT22;68671;50.084;8.794;2023-04-01T05:13:22;13.60;99.90
9847;DHT22;68671;50.084;8.794;2023-04-01T05:15:49;13.70;99.90
9847;DHT22;68671;50.084;8.794;2023-04-01T05:18:18;13.60;99.90
9847;DHT22;68671;50.084;8.794;2023-04-01T05:20:51;13.60;99.90
9847;DHT22;68671;50.084;8.794;2023-04-01T05:23:19;13.70;99.90
9847;DHT22;68671;50.084;8.794;2023-04-01T05:25:46;13.70;99.90
9847;DHT22;68671;50.084;8.794;2023-04-01T05:28:14;13.70;99.90
9847;DHT22;68671;50.084;8.794;2023-04-01T05:30:41;13.70;99.90
9847;DHT22;68671;50.084;8.794;2023-04-01T05:33:09;13.60;99.90
9847;DHT22;68671;50.084;8.794;2023-04-01T05:35:36;13.60;99.90
9847;DHT22;68671;50.084;8.794;2023-04-01T05:38:05;13.60;99.90
9847;DHT22;68671;50.084;8.794;2023-04-01T05:40:32;13.60;99.90
9847;DHT22;68671;50.084;8.794;2023-04-01T05:43:00;13.60;99.90
9847;DHT22;68671;50.084;8.794;2023-04-01T05:45:27;13.50;99.90
9847;DHT22;68671;50.084;8.794;2023-04-01T05:47:59;13.50;99.90
9847;DHT22;68671;50.084;8.794;2023-04-01T05:50:26;13.50;99.90
9847;DHT22;68671;50.084;8.794;2023-04-01T05:52:56;13.50;99.90
9847;DHT22;68671;50.084;8.794;2023-04-01T05:55:25;13.50;99.90
9847;DHT22;68671;50.084;8.794;2023-04-01T05:57:52;13.50;99.90
9847;DHT22;68671;50.084;8.794;2023-04-01T06:00:19;13.50;99.90
9847;DHT22;68671;50.084;8.794;2023-04-01T06:02:46;13.50;99.90
9847;DHT22;68671;50.084;8.794;2023-04-01T06:05:16;13.60;99.90
9847;DHT22;68671;50.084;8.794;2023-04-01T06:07:44;13.60;99.90
9847;DHT22;68671;50.084;8.794;2023-04-01T06:10:15;13.50;99.90
9847;DHT22;68671;50.084;8.794;2023-04-01T06:12:59;13.50;99.90
9847;DHT22;68671;50.084;8.794;2023-04-01T06:15:36;13.50;99.90
9847;DHT22;68671;50.084;8.794;2023-04-01T06:21:11;13.50;99.90
9847;DHT22;68671;50.084;8.794;2023-04-01T06:23:56;13.50;99.90
9847;DHT22;68671;50.084;8.794;2023-04-01T06:26:32;13.50;99.90
9847;DHT22;68671;50.084;8.794;2023-04-01T06:35:17;13.50;99.90
9847;DHT22;68671;50.084;8.794;2023-04-01T06:38:05;13.40;99.90
9847;DHT22;68671;50.084;8.794;2023-04-01T06:40:54;13.40;99.90
9847;DHT22;68671;50.084;8.794;2023-04-01T06:43:43;13.40;99.90
9847;DHT22;68671;50.084;8.794;2023-04-01T06:46:21;13.30;99.90
9847;DHT22;68671;50.084;8.794;2023-04-01T06:49:05;13.30;99.90
9847;DHT22;68671;50.084;8.794;2023-04-01T06:51:41;13.30;99.90
9847;DHT22;68671;50.084;8.794;2023-04-01T06:54:10;13.40;99.90
9847;DHT22;68671;50.084;8.794;2023-04-01T06:56:42;13.30;99.90
9847;DHT22;68671;50.084;8.794;2023-04-01T06:59:15;13.30;99.90
9847;DHT22;68671;50.084;8.794;2023-04-01T07:01:47;13.30;99.90
9847;DHT22;68671;50.084;8.794;2023-04-01T07:04:18;13.40;99.90
9847;DHT22;68671;50.084;8.794;2023-04-01T07:06:51;13.30;99.90
9847;DHT22;68671;50.084;8.794;2023-04-01T07:09:28;13.40;99.90
9847;DHT22;68671;50.084;8.794;2023-04-01T07:12:09;13.50;99.90
9847;DHT22;68671;50.084;8.794;2023-04-01T07:14:41;13.50;99.90
9847;DHT22;68671;50.084;8.794;2023-04-01T07:17:15;13.50;99.90
9847;DHT22;68671;50.084;8.794;2023-04-01T07:19:45;13.40;99.90
9847;DHT22;68671;50.084;8.794;2023-04-01T07:22:21;13.50;99.90
9847;DHT22;68671;50.084;8.794;2023-04-01T07:24:53;13.40;99.90
9847;DHT22;68671;50.084;8.794;2023-04-01T07:27:23;13.50;99.90
9847;DHT22;68671;50.084;8.794;2023-04-01T07:29:51;13.50;99.90
9847;DHT22;68671;50.084;8.794;2023-04-01T07:32:26;13.40;99.90
9847;DHT22;68671;50.084;8.794;2023-04-01T07:35:02;13.40;99.90
9847;DHT22;68671;50.084;8.794;2023-04-01T07:37:33;13.50;99.90
9847;DHT22;68671;50.084;8.794;2023-04-01T07:40:12;13.50;99.90
9847;DHT22;68671;50.084;8.794;2023-04-01T07:42:57;13.50;99.90
9847;DHT22;68671;50.084;8.794;2023-04-01T07:45:33;13.60;99.90
9847;DHT22;68671;50.084;8.794;2023-04-01T07:48:14;13.60;99.90
9847;DHT22;68671;50.084;8.794;2023-04-01T07:50:47;13.70;99.90
9847;DHT22;68671;50.084;8.794;2023-04-01T07:53:21;13.80;99.90
9847;DHT22;68671;50.084;8.794;2023-04-01T07:55:57;13.70;99.90
9847;DHT22;68671;50.084;8.794;2023-04-01T08:32:40;13.80;99.90
9847;DHT22;68671;50.084;8.794;2023-04-01T08:35:19;13.80;99.90
9847;DHT22;68671;50.084;8.794;2023-04-01T08:37:48;13.80;99.90
9847;DHT22;68671;50.084;8.794;2023-04-01T08:40:41;13.70;99.90
9847;DHT22;68671;50.084;8.794;2023-04-01T08:43:20;13.80;99.90
9847;DHT22;68671;50.084;8.794;2023-04-01T08:46:00;13.80;99.90
9847;DHT22;68671;50.084;8.794;2023-04-01T08:48:53;13.80;99.90
9847;DHT22;68671;50.084;8.794;2023-04-01T08:51:47;13.80;99.90
9847;DHT22;68671;50.084;8.794;2023-04-01T08:54:32;13.80;99.90
9847;DHT22;68671;50.084;8.794;2023-04-01T08:57:06;13.70;99.90
9847;DHT22;68671;50.084;8.794;2023-04-01T08:59:47;13.70;99.90
9847;DHT22;68671;50.084;8.794;2023-04-01T09:02:40;13.70;99.90
9847;DHT22;68671;50.084;8.794;2023-04-01T09:05:36;13.70;99.90
9847;DHT22;68671;50.084;8.794;2023-04-01T09:08:16;13.60;99.90
9847;DHT22;68671;50.084;8.794;2023-04-01T09:10:59;13.60;99.90
9847;DHT22;68671;50.084;8.794;2023-04-01T09:16:59;13.60;99.90
9847;DHT22;68671;50.084;8.794;2023-04-01T09:19:47;13.70;99.90
9847;DHT22;68671;50.084;8.794;2023-04-01T09:22:34;13.70;99.90
9847;DHT22;68671;50.084;8.794;2023-04-01T09:25:38;13.70;99.90
9847;DHT22;68671;50.084;8.794;2023-04-01T09:28:11;13.70;99.90
9847;DHT22;68671;50.084;8.794;2023-04-01T09:30:58;13.70;99.90
9847;DHT22;68671;50.084;8.794;2023-04-01T09:33:56;13.80;99.90
9847;DHT22;68671;50.084;8.794;2023-04-01T09:36:43;13.80;99.90
9847;DHT22;68671;50.084;8.794;2023-04-01T09:39:23;13.80;99.90
9847;DHT22;68671;50.084;8.794;2023-04-01T09:42:14;13.80;99.90
9847;DHT22;68671;50.084;8.794;2023-04-01T09:44:44;13.90;99.90
9847;DHT22;68671;50.084;8.794;2023-04-01T09:47:27;14.00;99.90
9847;DHT22;68671;50.084;8.794;2023-04-01T09:50:20;14.00;99.90
9847;DHT22;68671;50.084;8.794;2023-04-01T09:53:00;14.10;99.90
9847;DHT22;68671;50.084;8.794;2023-04-01T09:58:58;14.20;99.90
9847;DHT22;68671;50.084;8.794;2023-04-01T10:01:45;14.30;99.90
9847;DHT22;68671;50.084;8.794;2023-04-01T10:07:49;14.30;99.90
9847;DHT22;68671;50.084;8.794;2023-04-01T10:13:56;14.40;99.90
9847;DHT22;68671;50.084;8.794;2023-04-01T10:16:49;14.40;99.90
9847;DHT22;68671;50.084;8.794;2023-04-01T10:19:49;14.40;99.90
9847;DHT22;68671;50.084;8.794;2023-04-01T10:22:40;14.50;99.90
9847;DHT22;68671;50.084;8.794;2023-04-01T10:32:01;14.50;99.90
9847;DHT22;68671;50.084;8.794;2023-04-01T10:37:56;14.60;99.90
9847;DHT22;68671;50.084;8.794;2023-04-01T10:40:38;14.60;99.90
9847;DHT22;68671;50.084;8.794;2023-04-01T10:46:22;14.70;99.90
9847;DHT22;68671;50.084;8.794;2023-04-01T10:49:16;14.60;99.90
9847;DHT22;68671;50.084;8.794;2023-04-01T10:52:24;14.50;99.90
9847;DHT22;68671;50.084;8.794;2023-04-01T10:55:19;14.60;99.90
9847;DHT22;68671;50.084;8.794;2023-04-01T10:58:25;14.60;99.90
9847;DHT22;68671;50.084;8.794;2023-04-01T11:01:27;14.60;99.90
9847;DHT22;68671;50.084;8.794;2023-04-01T11:07:27;14.60;99.90
9847;DHT22;68671;50.084;8.794;2023-04-01T11:16:42;14.60;99.90
9847;DHT22;68671;50.084;8.794;2023-04-01T11:19:46;14.60;99.90
9847;DHT22;68671;50.084;8.794;2023-04-01T11:22:29;14.60;99.90
9847;DHT22;68671;50.084;8.794;2023-04-01T11:25:24;14.60;99.90
9847;DHT22;68671;50.084;8.794;2023-04-01T11:28:18;14.70;99.90
9847;DHT22;68671;50.084;8.794;2023-04-01T11:31:04;14.70;99.90
9847;DHT22;68671;50.084;8.794;2023-04-01T11:33:41;14.80;99.90
9847;DHT22;68671;50.084;8.794;2023-04-01T11:36:20;14.80;99.90
9847;DHT22;68671;50.084;8.794;2023-04-01T11:39:00;14.80;99.90
9847;DHT22;68671;50.084;8.794;2023-04-01T11:41:35;14.90;99.90
9847;DHT22;68671;50.084;8.794;2023-04-01T11:44:14;14.90;99.90
9847;DHT22;68671;50.084;8.794;2023-04-01T11:46:52;14.90;99.90
9847;DHT22;68671;50.084;8.794;2023-04-01T11:49:35;14.90;99.90
9847;DHT22;68671;50.084;8.794;2023-04-01T11:55:19;15.00;99.90
9847;DHT22;68671;50.084;8.794;2023-04-01T11:58:18;15.00;99.90
9847;DHT22;68671;50.084;8.794;2023-04-01T12:01:03;15.10;99.90
9847;DHT22;68671;50.084;8.794;2023-04-01T12:03:51;15.10;99.90
9847;DHT22;68671;50.084;8.794;2023-04-01T12:06:25;15.20;99.90
9847;DHT22;68671;50.084;8.794;2023-04-01T12:09:01;15.20;99.90
9847;DHT22;68671;50.084;8.794;2023-04-01T12:11:39;15.30;99.90
9847;DHT22;68671;50.084;8.794;2023-04-01T12:14:19;15.40;99.90
9847;DHT22;68671;50.084;8.794;2023-04-01T12:16:58;15.40;99.90
9847;DHT22;68671;50.084;8.794;2023-04-01T12:19:36;15.40;99.90
9847;DHT22;68671;50.084;8.794;2023-04-01T12:22:29;15.50;99.90
9847;DHT22;68671;50.084;8.794;2023-04-01T12:25:14;15.60;99.90
9847;DHT22;68671;50.084;8.794;2023-04-01T12:27:59;15.60;99.90
9847;DHT22;68671;50.084;8.794;2023-04-01T12:30:42;15.60;99.90
9847;DHT22;68671;50.084;8.794;2023-04-01T12:36:30;15.70;99.90
9847;DHT22;68671;50.084;8.794;2023-04-01T12:39:18;15.70;99.90
9847;DHT22;68671;50.084;8.794;2023-04-01T12:41:54;15.70;99.90
9847;DHT22;68671;50.084;8.794;2023-04-01T12:44:48;15.80;99.90
9847;DHT22;68671;50.084;8.794;2023-04-01T12:47:39;15.80;99.90
9847;DHT22;68671;50.084;8.794;2023-04-01T12:50:19;15.70;99.90
9847;DHT22;68671;50.084;8.794;2023-04-01T12:53:03;15.70;99.90
9847;DHT22;68671;50.084;8.794;2023-04-01T12:55:41;15.70;99.90
9847;DHT22;68671;50.084;8.794;2023-04-01T13:01:28;15.70;99.90
9847;DHT22;68671;50.084;8.794;2023-04-01T13:07:39;15.50;99.90
9847;DHT22;68671;50.084;8.794;2023-04-01T13:10:16;15.50;99.90
9847;DHT22;68671;50.084;8.794;2023-04-01T13:13:26;15.40;99.90
9847;DHT22;68671;50.084;8.794;2023-04-01T13:15:58;15.40;99.90
9847;DHT22;68671;50.084;8.794;2023-04-01T13:18:36;15.20;99.90
9847;DHT22;68671;50.084;8.794;2023-04-01T13:21:09;15.20;99.90
9847;DHT22;68671;50.084;8.794;2023-04-01T13:23:50;15.10;99.90
9847;DHT22;68671;50.084;8.794;2023-04-01T13:26:26;15.00;99.90
9847;DHT22;68671;50.084;8.794;2023-04-01T13:28:59;15.00;99.90
9847;DHT22;68671;50.084;8.794;2023-04-01T13:31:38;14.90;99.90
9847;DHT22;68671;50.084;8.794;2023-04-01T13:34:27;14.80;99.90
9847;DHT22;68671;50.084;8.794;2023-04-01T13:37:10;14.70;99.90
9847;DHT22;68671;50.084;8.794;2023-04-01T13:39:47;14.70;99.90
9847;DHT22;68671;50.084;8.794;2023-04-01T13:42:21;14.60;99.90
9847;DHT22;68671;50.084;8.794;2023-04-01T13:44:54;14.60;99.90
9847;DHT22;68671;50.084;8.794;2023-04-01T13:47:50;14.60;99.90
9847;DHT22;68671;50.084;8.794;2023-04-01T13:50:37;14.60;99.90
9847;DHT22;68671;50.084;8.794;2023-04-01T13:56:19;14.60;99.90
9847;DHT22;68671;50.084;8.794;2023-04-01T13:59:10;14.70;99.90
9847;DHT22;68671;50.084;8.794;2023-04-01T14:01:42;14.70;99.90
9847;DHT22;68671;50.084;8.794;2023-04-01T14:07:18;14.70;99.90
9847;DHT22;68671;50.084;8.794;2023-04-01T14:10:02;14.70;99.90
9847;DHT22;68671;50.084;8.794;2023-04-01T14:12:38;14.70;99.90
9847;DHT22;68671;50.084;8.794;2023-04-01T14:15:18;14.80;99.90
9847;DHT22;68671;50.084;8.794;2023-04-01T14:18:06;14.80;99.90
9847;DHT22;68671;50.084;8.794;2023-04-01T14:20:39;14.80;99.90
9847;DHT22;68671;50.084;8.794;2023-04-01T14:23:29;14.80;99.90
9847;DHT22;68671;50.084;8.794;2023-04-01T14:26:12;14.80;99.90
9847;DHT22;68671;50.084;8.794;2023-04-01T14:28:48;14.80;99.90
9847;DHT22;68671;50.084;8.794;2023-04-01T14:31:30;14.80;99.90
9847;DHT22;68671;50.084;8.794;2023-04-01T14:34:09;14.90;99.90
9847;DHT22;68671;50.084;8.794;2023-04-01T14:36:53;14.80;99.90
9847;DHT22;68671;50.084;8.794;2023-04-01T14:39:46;14.90;99.90
9847;DHT22;68671;50.084;8.794;2023-04-01T14:42:38;14.90;99.90
9847;DHT22;68671;50.084;8.794;2023-04-01T14:45:30;14.90;99.90
9847;DHT22;68671;50.084;8.794;2023-04-01T14:48:03;14.90;99.90
9847;DHT22;68671;50.084;8.794;2023-04-01T14:50:41;14.90;99.90
9847;DHT22;68671;50.084;8.794;2023-04-01T14:53:16;14.90;99.90
9847;DHT22;68671;50.084;8.794;2023-04-01T14:55:53;14.90;99.90
9847;DHT22;68671;50.084;8.794;2023-04-01T14:58:22;14.90;99.90
9847;DHT22;68671;50.084;8.794;2023-04-01T15:00:58;15.00;99.90
9847;DHT22;68671;50.084;8.794;2023-04-01T15:03:30;14.90;99.90
9847;DHT22;68671;50.084;8.794;2023-04-01T15:06:27;15.00;99.90
9847;DHT22;68671;50.084;8.794;2023-04-01T15:09:05;15.00;99.90
9847;DHT22;68671;50.084;8.794;2023-04-01T15:11:47;15.00;99.90
9847;DHT22;68671;50.084;8.794;2023-04-01T15:14:43;15.00;99.90
9847;DHT22;68671;50.084;8.794;2023-04-01T15:21:18;15.00;99.90
9847;DHT22;68671;50.084;8.794;2023-04-01T15:23:59;15.10;99.90
9847;DHT22;68671;50.084;8.794;2023-04-01T15:26:49;15.10;99.90
9847;DHT22;68671;50.084;8.794;2023-04-01T15:36:17;15.20;99.90
9847;DHT22;68671;50.084;8.794;2023-04-01T15:38:58;15.10;99.90
9847;DHT22;68671;50.084;8.794;2023-04-01T15:41:46;15.20;99.90
9847;DHT22;68671;50.084;8.794;2023-04-01T15:44:41;15.20;99.90
9847;DHT22;68671;50.084;8.794;2023-04-01T15:47:30;15.10;99.90
9847;DHT22;68671;50.084;8.794;2023-04-01T15:50:12;15.10;99.90
9847;DHT22;68671;50.084;8.794;2023-04-01T15:52:50;15.20;99.90
9847;DHT22;68671;50.084;8.794;2023-04-01T15:55:22;15.20;99.90
9847;DHT22;68671;50.084;8.794;2023-04-01T15:58:04;15.10;99.90
9847;DHT22;68671;50.084;8.794;2023-04-01T16:00:42;15.10;99.90
9847;DHT22;68671;50.084;8.794;2023-04-01T16:03:19;15.10;99.90
9847;DHT22;68671;50.084;8.794;2023-04-01T16:06:00;15.10;99.90
9847;DHT22;68671;50.084;8.794;2023-04-01T16:08:56;15.10;99.90
9847;DHT22;68671;50.084;8.794;2023-04-01T16:11:33;15.10;99.90
9847;DHT22;68671;50.084;8.794;2023-04-01T16:14:14;15.10;99.90
9847;DHT22;68671;50.084;8.794;2023-04-01T16:16:57;15.00;99.90
9847;DHT22;68671;50.084;8.794;2023-04-01T16:19:46;15.00;99.90
9847;DHT22;68671;50.084;8.794;2023-04-01T16:22:20;15.00;99.90
9847;DHT22;68671;50.084;8.794;2023-04-01T16:24:51;15.00;99.90
9847;DHT22;68671;50.084;8.794;2023-04-01T16:27:27;15.00;99.90
9847;DHT22;68671;50.084;8.794;2023-04-01T16:30:00;15.00;99.90
9847;DHT22;68671;50.084;8.794;2023-04-01T16:32:36;15.00;99.90
9847;DHT22;68671;50.084;8.794;2023-04-01T16:35:35;15.10;99.90
9847;DHT22;68671;50.084;8.794;2023-04-01T16:38:13;15.00;99.90
9847;DHT22;68671;50.084;8.794;2023-04-01T16:40:46;15.00;99.90
9847;DHT22;68671;50.084;8.794;2023-04-01T16:43:20;15.00;99.90
9847;DHT22;68671;50.084;8.794;2023-04-01T16:46:12;15.00;99.90
9847;DHT22;68671;50.084;8.794;2023-04-01T16:48:58;14.90;99.90
9847;DHT22;68671;50.084;8.794;2023-04-01T16:51:30;15.00;99.90
9847;DHT22;68671;50.084;8.794;2023-04-01T16:54:06;14.90;99.90
9847;DHT22;68671;50.084;8.794;2023-04-01T16:56:39;14.90;99.90
9847;DHT22;68671;50.084;8.794;2023-04-01T16:59:16;14.90;99.90
9847;DHT22;68671;50.084;8.794;2023-04-01T17:04:48;14.70;99.90
9847;DHT22;68671;50.084;8.794;2023-04-01T17:10:55;14.80;99.90
9847;DHT22;68671;50.084;8.794;2023-04-01T17:13:38;14.80;99.90
9847;DHT22;68671;50.084;8.794;2023-04-01T17:16:30;14.80;99.90
9847;DHT22;68671;50.084;8.794;2023-04-01T17:19:11;14.80;99.90
9847;DHT22;68671;50.084;8.794;2023-04-01T17:22:11;14.80;99.90
9847;DHT22;68671;50.084;8.794;2023-04-01T17:24:57;14.70;99.90
9847;DHT22;68671;50.084;8.794;2023-04-01T17:27:39;14.70;99.90
9847;DHT22;68671;50.084;8.794;2023-04-01T17:30:22;14.70;99.90
9847;DHT22;68671;50.084;8.794;2023-04-01T17:33:07;14.70;99.90
9847;DHT22;68671;50.084;8.794;2023-04-01T17:35:39;14.70;99.90
9847;DHT22;68671;50.084;8.794;2023-04-01T17:38:17;14.70;99.90
9847;DHT22;68671;50.084;8.794;2023-04-01T17:40:57;14.70;99.90
9847;DHT22;68671;50.084;8.794;2023-04-01T17:43:35;14.70;99.90
9847;DHT22;68671;50.084;8.794;2023-04-01T17:46:21;14.70;99.90
9847;DHT22;68671;50.084;8.794;2023-04-01T17:48:54;14.70;99.90
9847;DHT22;68671;50.084;8.794;2023-04-01T17:51:30;14.70;99.90
9847;DHT22;68671;50.084;8.794;2023-04-01T18:03:56;14.60;99.90
9847;DHT22;68671;50.084;8.794;2023-04-01T18:06:34;14.70;99.90
9847;DHT22;68671;50.084;8.794;2023-04-01T18:09:09;14.60;99.90
9847;DHT22;68671;50.084;8.794;2023-04-01T18:11:49;14.60;99.90
9847;DHT22;68671;50.084;8.794;2023-04-01T18:14:43;14.60;99.90
9847;DHT22;68671;50.084;8.794;2023-04-01T18:17:18;14.60;99.90
9847;DHT22;68671;50.084;8.794;2023-04-01T18:19:58;14.50;99.90
9847;DHT22;68671;50.084;8.794;2023-04-01T18:22:33;14.50;99.90
9847;DHT22;68671;50.084;8.794;2023-04-01T18:25:15;14.50;99.90
9847;DHT22;68671;50.084;8.794;2023-04-01T18:27:46;14.50;99.90
9847;DHT22;68671;50.084;8.794;2023-04-01T18:30:28;14.50;99.90
9847;DHT22;68671;50.084;8.794;2023-04-01T18:33:01;14.50;99.90
9847;DHT22;68671;50.084;8.794;2023-04-01T18:35:45;14.50;99.90
9847;DHT22;68671;50.084;8.794;2023-04-01T18:38:15;14.50;99.90
9847;DHT22;68671;50.084;8.794;2023-04-01T18:40:46;14.50;99.90
9847;DHT22;68671;50.084;8.794;2023-04-01T18:43:22;14.50;99.90
9847;DHT22;68671;50.084;8.794;2023-04-01T18:45:58;14.50;99.90
9847;DHT22;68671;50.084;8.794;2023-04-01T18:48:51;14.40;99.90
9847;DHT22;68671;50.084;8.794;2023-04-01T18:51:21;14.50;99.90
9847;DHT22;68671;50.084;8.794;2023-04-01T18:53:56;14.40;99.90
9847;DHT22;68671;50.084;8.794;2023-04-01T18:56:27;14.30;99.90